Fort Loudon, PA (17224)

3:02 AM EDT on April 25, 2015 (GMT -0400)
Edenville | | Change Station
CLOSE
Current Station
Personal Weather Station
Location: Chambersburg, PA
Elevation: 958 ft
Nearby Weather Stations
Active Advisory: Freeze Warning

Elev 958 ft 39.96 °N, 77.82 °W | Updated 6 minutes ago

Clear
Clear
35.4 °F
Feels Like 35 °F
N
0.0
Wind Variable Wind from WNW

Today
High -- | Low -- °F
--% Chance of Precip.
Yesterday
High -- | Low -- °F
Precip. -- in
6:19 AM 7:59 PM
Waxing Crescent, 43% visible
Pressure 30.00 in
Visibility 10.0 miles
Clouds Clear
Windchill 35 °F
Dew Point 19 °F
Humidity 50%
Rainfall 0.00 in
Snow Depth Not available.
UV 0 out of 12
Pollen 7.90 out of 12
Air Quality Not available.
Flu Activity Sporadic
METAR KHGR 250653Z AUTO 01003KT 10SM CLR 06/M11 A2996 RMK AO2 SLP158 T00561106

More Conditions Fewer Conditions

Pressure 30.00 in
Visibility 10.0 miles
Clouds Clear
Windchill 35 °F
Dew Point 19 °F
Humidity 50%
Rainfall 0.00 in
Snow Depth Not available.
UV 0 out of 12
Pollen 7.90 out of 12
Air Quality Not available.
Flu Activity Sporadic
METAR KHGR 250653Z AUTO 01003KT 10SM CLR 06/M11 A2996 RMK AO2 SLP158 T00561106

More Conditions Fewer Conditions

10-Day Weather Forecast

Almanac

Astronomy

Apr. 25, 2015 Rise Set
Actual Time
Civil Twilight
Nautical Twilight
Astronomical Twilight
Moon
Length of Visible Light
Length of Day
Tomorrow will be .
, % of the Moon is Illuminated

Today's Extremes

State Highs State Lows

Community

WunderPhotos

Upload Photos

1,816,624 photos uploaded!

WunderBlogs® & News

Nearby

Air Quality

  Air Quality AQ Index Pollutant
Not available.

Snow Depth

Station Depth Elevation

Earthquake Activity

City Distance Mag. Time & Date
Minimum magnitude displayed is 2.5.

Coastal Water Temperatures

Place Temperature

Stations

Nearby Weather Stations

Station Location Temp. Windchill Dew Point Humidity Wind Precip. Elev Updated Type
                   
Freeze Warning
Statement as of 10:05 PM EDT on April 24, 2015

... Freeze warning remains in effect from 2 am to 9 am EDT
Saturday...

* minimum temperatures... low temperatures between 28 and 32
degrees Saturday morning.

* Impacts... possible damage to sensitive crops and vegetation.

Precautionary/preparedness actions...

Those with agricultural or gardening interests should protect
sensitive crops and vegetation. Potted plants normally left
outdoors should be covered or brought inside.